sensor_id;sensor_type;location;lat;lon;timestamp;P1;durP1;ratioP1;P2;durP2;ratioP2
59308;SDS011;48433;53.016;-2.260;2023-08-01T00:00:21;9.75;;;3.28;;
59308;SDS011;48433;53.016;-2.260;2023-08-01T00:02:50;13.07;;;4.47;;
59308;SDS011;48433;53.016;-2.260;2023-08-01T00:05:18;13.00;;;4.13;;
59308;SDS011;48433;53.016;-2.260;2023-08-01T00:07:46;11.82;;;3.72;;
59308;SDS011;48433;53.016;-2.260;2023-08-01T00:10:13;10.75;;;3.38;;
59308;SDS011;48433;53.016;-2.260;2023-08-01T00:12:43;10.80;;;3.45;;
59308;SDS011;48433;53.016;-2.260;2023-08-01T00:15:11;9.18;;;3.30;;
59308;SDS011;48433;53.016;-2.260;2023-08-01T00:17:38;10.05;;;3.42;;
59308;SDS011;48433;53.016;-2.260;2023-08-01T00:20:07;10.90;;;3.67;;
59308;SDS011;48433;53.016;-2.260;2023-08-01T00:22:35;9.93;;;3.17;;
59308;SDS011;48433;53.016;-2.260;2023-08-01T00:25:03;13.60;;;3.00;;
59308;SDS011;48433;53.016;-2.260;2023-08-01T00:27:31;10.82;;;3.00;;
59308;SDS011;48433;53.016;-2.260;2023-08-01T00:30:07;13.00;;;3.50;;
59308;SDS011;48433;53.016;-2.260;2023-08-01T00:32:35;10.35;;;3.35;;
59308;SDS011;48433;53.016;-2.260;2023-08-01T00:35:03;11.10;;;3.33;;
59308;SDS011;48433;53.016;-2.260;2023-08-01T00:37:31;12.57;;;3.13;;
59308;SDS011;48433;53.016;-2.260;2023-08-01T00:39:59;9.07;;;2.88;;
59308;SDS011;48433;53.016;-2.260;2023-08-01T00:42:27;9.30;;;3.08;;
59308;SDS011;48433;53.016;-2.260;2023-08-01T00:44:54;11.02;;;3.88;;
59308;SDS011;48433;53.016;-2.260;2023-08-01T00:47:22;11.50;;;2.85;;
59308;SDS011;48433;53.016;-2.260;2023-08-01T00:49:51;11.32;;;3.28;;
59308;SDS011;48433;53.016;-2.260;2023-08-01T00:52:19;11.85;;;3.38;;
59308;SDS011;48433;53.016;-2.260;2023-08-01T00:54:47;13.73;;;3.10;;
59308;SDS011;48433;53.016;-2.260;2023-08-01T00:57:14;10.80;;;3.17;;
59308;SDS011;48433;53.016;-2.260;2023-08-01T00:59:42;7.63;;;3.08;;
59308;SDS011;48433;53.016;-2.260;2023-08-01T01:02:09;11.18;;;2.78;;
59308;SDS011;48433;53.016;-2.260;2023-08-01T01:04:39;8.35;;;2.47;;
59308;SDS011;48433;53.016;-2.260;2023-08-01T01:07:06;9.73;;;3.35;;
59308;SDS011;48433;53.016;-2.260;2023-08-01T01:09:35;10.95;;;2.78;;
59308;SDS011;48433;53.016;-2.260;2023-08-01T01:12:03;14.73;;;3.25;;
59308;SDS011;48433;53.016;-2.260;2023-08-01T01:14:31;7.85;;;2.90;;
59308;SDS011;48433;53.016;-2.260;2023-08-01T01:16:59;9.15;;;3.03;;
59308;SDS011;48433;53.016;-2.260;2023-08-01T01:19:26;12.18;;;3.40;;
59308;SDS011;48433;53.016;-2.260;2023-08-01T01:21:54;11.68;;;3.22;;
59308;SDS011;48433;53.016;-2.260;2023-08-01T01:24:23;10.23;;;3.08;;
59308;SDS011;48433;53.016;-2.260;2023-08-01T01:26:52;12.13;;;3.67;;
59308;SDS011;48433;53.016;-2.260;2023-08-01T01:29:21;8.73;;;3.35;;
59308;SDS011;48433;53.016;-2.260;2023-08-01T01:31:51;11.88;;;3.67;;
59308;SDS011;48433;53.016;-2.260;2023-08-01T01:34:20;11.13;;;3.92;;
59308;SDS011;48433;53.016;-2.260;2023-08-01T01:36:49;11.52;;;3.05;;
59308;SDS011;48433;53.016;-2.260;2023-08-01T01:39:17;12.13;;;3.05;;
59308;SDS011;48433;53.016;-2.260;2023-08-01T01:41:44;10.75;;;3.15;;
59308;SDS011;48433;53.016;-2.260;2023-08-01T01:44:12;10.60;;;3.53;;
59308;SDS011;48433;53.016;-2.260;2023-08-01T01:46:40;8.77;;;3.17;;
59308;SDS011;48433;53.016;-2.260;2023-08-01T01:49:08;12.07;;;3.35;;
59308;SDS011;48433;53.016;-2.260;2023-08-01T01:51:36;9.73;;;3.03;;
59308;SDS011;48433;53.016;-2.260;2023-08-01T01:54:03;11.75;;;3.03;;
59308;SDS011;48433;53.016;-2.260;2023-08-01T01:56:31;10.68;;;2.90;;
59308;SDS011;48433;53.016;-2.260;2023-08-01T01:58:59;12.70;;;3.90;;
59308;SDS011;48433;53.016;-2.260;2023-08-01T02:01:27;11.45;;;3.67;;
59308;SDS011;48433;53.016;-2.260;2023-08-01T02:03:54;11.98;;;3.20;;
59308;SDS011;48433;53.016;-2.260;2023-08-01T02:06:22;11.57;;;4.00;;
59308;SDS011;48433;53.016;-2.260;2023-08-01T02:08:50;10.02;;;3.28;;
59308;SDS011;48433;53.016;-2.260;2023-08-01T02:11:17;10.75;;;3.35;;
59308;SDS011;48433;53.016;-2.260;2023-08-01T02:13:45;11.57;;;3.08;;
59308;SDS011;48433;53.016;-2.260;2023-08-01T02:16:13;11.85;;;3.22;;
59308;SDS011;48433;53.016;-2.260;2023-08-01T02:18:40;13.48;;;3.00;;
59308;SDS011;48433;53.016;-2.260;2023-08-01T02:21:08;10.60;;;2.90;;
59308;SDS011;48433;53.016;-2.260;2023-08-01T02:23:35;8.98;;;3.03;;
59308;SDS011;48433;53.016;-2.260;2023-08-01T02:26:04;13.52;;;3.50;;
59308;SDS011;48433;53.016;-2.260;2023-08-01T02:28:34;14.35;;;3.47;;
59308;SDS011;48433;53.016;-2.260;2023-08-01T02:31:02;14.77;;;3.35;;
59308;SDS011;48433;53.016;-2.260;2023-08-01T02:33:29;12.60;;;2.80;;
59308;SDS011;48433;53.016;-2.260;2023-08-01T02:35:57;13.30;;;3.08;;
59308;SDS011;48433;53.016;-2.260;2023-08-01T02:38:25;11.77;;;2.78;;
59308;SDS011;48433;53.016;-2.260;2023-08-01T02:40:52;8.48;;;2.60;;
59308;SDS011;48433;53.016;-2.260;2023-08-01T02:43:20;7.80;;;2.58;;
59308;SDS011;48433;53.016;-2.260;2023-08-01T02:45:47;9.98;;;3.15;;
59308;SDS011;48433;53.016;-2.260;2023-08-01T02:48:15;8.15;;;2.85;;
59308;SDS011;48433;53.016;-2.260;2023-08-01T02:50:43;11.65;;;3.42;;
59308;SDS011;48433;53.016;-2.260;2023-08-01T02:53:11;12.38;;;3.17;;
59308;SDS011;48433;53.016;-2.260;2023-08-01T02:55:39;12.60;;;3.40;;
59308;SDS011;48433;53.016;-2.260;2023-08-01T02:58:06;14.52;;;3.00;;
59308;SDS011;48433;53.016;-2.260;2023-08-01T03:00:37;10.65;;;2.83;;
59308;SDS011;48433;53.016;-2.260;2023-08-01T03:03:06;10.20;;;2.63;;
59308;SDS011;48433;53.016;-2.260;2023-08-01T03:05:37;12.45;;;3.72;;
59308;SDS011;48433;53.016;-2.260;2023-08-01T03:08:05;9.50;;;2.85;;
59308;SDS011;48433;53.016;-2.260;2023-08-01T03:10:32;7.65;;;2.78;;
59308;SDS011;48433;53.016;-2.260;2023-08-01T03:13:03;11.07;;;2.90;;
59308;SDS011;48433;53.016;-2.260;2023-08-01T03:15:31;10.95;;;2.58;;
59308;SDS011;48433;53.016;-2.260;2023-08-01T03:17:59;6.93;;;3.05;;
59308;SDS011;48433;53.016;-2.260;2023-08-01T03:20:28;9.68;;;3.00;;
59308;SDS011;48433;53.016;-2.260;2023-08-01T03:22:55;10.57;;;2.67;;
59308;SDS011;48433;53.016;-2.260;2023-08-01T03:25:23;12.50;;;2.78;;
59308;SDS011;48433;53.016;-2.260;2023-08-01T03:27:50;13.40;;;2.50;;
59308;SDS011;48433;53.016;-2.260;2023-08-01T03:30:18;11.27;;;3.00;;
59308;SDS011;48433;53.016;-2.260;2023-08-01T03:32:46;10.23;;;2.88;;
59308;SDS011;48433;53.016;-2.260;2023-08-01T03:35:14;10.90;;;3.10;;
59308;SDS011;48433;53.016;-2.260;2023-08-01T03:37:41;11.50;;;3.08;;
59308;SDS011;48433;53.016;-2.260;2023-08-01T03:40:09;7.93;;;2.95;;
59308;SDS011;48433;53.016;-2.260;2023-08-01T03:42:37;10.68;;;3.53;;
59308;SDS011;48433;53.016;-2.260;2023-08-01T03:45:05;12.43;;;3.00;;
59308;SDS011;48433;53.016;-2.260;2023-08-01T03:47:33;10.98;;;2.90;;
59308;SDS011;48433;53.016;-2.260;2023-08-01T03:50:01;16.80;;;3.58;;
59308;SDS011;48433;53.016;-2.260;2023-08-01T03:52:30;8.95;;;3.28;;
59308;SDS011;48433;53.016;-2.260;2023-08-01T03:54:57;11.98;;;3.00;;
59308;SDS011;48433;53.016;-2.260;2023-08-01T03:57:25;12.40;;;3.50;;
59308;SDS011;48433;53.016;-2.260;2023-08-01T03:59:53;12.20;;;3.15;;
59308;SDS011;48433;53.016;-2.260;2023-08-01T04:02:20;12.15;;;2.70;;
59308;SDS011;48433;53.016;-2.260;2023-08-01T04:04:49;14.30;;;3.22;;
59308;SDS011;48433;53.016;-2.260;2023-08-01T04:07:17;11.13;;;3.03;;
59308;SDS011;48433;53.016;-2.260;2023-08-01T04:09:45;12.95;;;2.75;;
59308;SDS011;48433;53.016;-2.260;2023-08-01T04:12:13;11.82;;;3.15;;
59308;SDS011;48433;53.016;-2.260;2023-08-01T04:14:41;10.23;;;3.70;;
59308;SDS011;48433;53.016;-2.260;2023-08-01T04:17:09;10.65;;;3.13;;
59308;SDS011;48433;53.016;-2.260;2023-08-01T04:19:36;9.27;;;2.55;;
59308;SDS011;48433;53.016;-2.260;2023-08-01T04:22:04;11.32;;;3.03;;
59308;SDS011;48433;53.016;-2.260;2023-08-01T04:24:32;10.90;;;2.38;;
59308;SDS011;48433;53.016;-2.260;2023-08-01T04:26:59;14.98;;;2.70;;
59308;SDS011;48433;53.016;-2.260;2023-08-01T04:29:27;10.20;;;2.55;;
59308;SDS011;48433;53.016;-2.260;2023-08-01T04:31:54;11.70;;;2.72;;
59308;SDS011;48433;53.016;-2.260;2023-08-01T04:34:22;13.75;;;3.03;;
59308;SDS011;48433;53.016;-2.260;2023-08-01T04:36:50;14.55;;;2.47;;
59308;SDS011;48433;53.016;-2.260;2023-08-01T04:39:18;11.65;;;2.85;;
59308;SDS011;48433;53.016;-2.260;2023-08-01T04:41:45;8.75;;;2.30;;
59308;SDS011;48433;53.016;-2.260;2023-08-01T04:44:13;16.02;;;3.05;;
59308;SDS011;48433;53.016;-2.260;2023-08-01T04:46:41;8.45;;;2.60;;
59308;SDS011;48433;53.016;-2.260;2023-08-01T04:49:09;8.57;;;2.85;;
59308;SDS011;48433;53.016;-2.260;2023-08-01T04:51:37;6.90;;;2.20;;
59308;SDS011;48433;53.016;-2.260;2023-08-01T04:54:04;12.60;;;2.88;;
59308;SDS011;48433;53.016;-2.260;2023-08-01T04:56:32;11.80;;;3.28;;
59308;SDS011;48433;53.016;-2.260;2023-08-01T04:58:59;12.43;;;3.35;;
59308;SDS011;48433;53.016;-2.260;2023-08-01T05:01:29;12.50;;;2.90;;
59308;SDS011;48433;53.016;-2.260;2023-08-01T05:03:56;7.38;;;2.80;;
59308;SDS011;48433;53.016;-2.260;2023-08-01T05:06:25;11.77;;;4.22;;
59308;SDS011;48433;53.016;-2.260;2023-08-01T05:08:52;8.05;;;2.30;;
59308;SDS011;48433;53.016;-2.260;2023-08-01T05:11:20;8.18;;;2.30;;
59308;SDS011;48433;53.016;-2.260;2023-08-01T05:13:48;8.73;;;2.83;;
59308;SDS011;48433;53.016;-2.260;2023-08-01T05:16:16;9.75;;;2.92;;
59308;SDS011;48433;53.016;-2.260;2023-08-01T05:18:43;7.85;;;2.38;;
59308;SDS011;48433;53.016;-2.260;2023-08-01T05:21:11;7.97;;;2.55;;
59308;SDS011;48433;53.016;-2.260;2023-08-01T05:23:38;10.75;;;2.58;;
59308;SDS011;48433;53.016;-2.260;2023-08-01T05:26:06;11.35;;;2.70;;
59308;SDS011;48433;53.016;-2.260;2023-08-01T05:28:34;9.82;;;2.35;;
59308;SDS011;48433;53.016;-2.260;2023-08-01T05:31:01;10.75;;;2.83;;
59308;SDS011;48433;53.016;-2.260;2023-08-01T05:33:29;12.18;;;2.88;;
59308;SDS011;48433;53.016;-2.260;2023-08-01T05:35:57;14.90;;;3.60;;
59308;SDS011;48433;53.016;-2.260;2023-08-01T05:38:24;8.50;;;2.22;;
59308;SDS011;48433;53.016;-2.260;2023-08-01T05:40:52;10.65;;;2.60;;
59308;SDS011;48433;53.016;-2.260;2023-08-01T05:43:19;10.75;;;2.28;;
59308;SDS011;48433;53.016;-2.260;2023-08-01T05:45:47;6.15;;;2.22;;
59308;SDS011;48433;53.016;-2.260;2023-08-01T05:48:18;11.63;;;2.40;;
59308;SDS011;48433;53.016;-2.260;2023-08-01T05:50:46;8.68;;;2.30;;
59308;SDS011;48433;53.016;-2.260;2023-08-01T05:53:13;8.73;;;2.35;;
59308;SDS011;48433;53.016;-2.260;2023-08-01T05:55:41;7.75;;;2.50;;
59308;SDS011;48433;53.016;-2.260;2023-08-01T05:58:09;8.48;;;2.35;;
59308;SDS011;48433;53.016;-2.260;2023-08-01T06:00:36;7.78;;;2.30;;
59308;SDS011;48433;53.016;-2.260;2023-08-01T06:03:04;10.70;;;2.70;;
59308;SDS011;48433;53.016;-2.260;2023-08-01T06:05:32;9.80;;;2.33;;
59308;SDS011;48433;53.016;-2.260;2023-08-01T06:07:59;8.13;;;2.47;;
59308;SDS011;48433;53.016;-2.260;2023-08-01T06:10:27;10.90;;;2.83;;
59308;SDS011;48433;53.016;-2.260;2023-08-01T06:12:55;6.30;;;2.00;;
59308;SDS011;48433;53.016;-2.260;2023-08-01T06:15:22;6.70;;;1.83;;
59308;SDS011;48433;53.016;-2.260;2023-08-01T06:17:50;12.70;;;2.78;;
59308;SDS011;48433;53.016;-2.260;2023-08-01T06:20:17;12.00;;;2.85;;
59308;SDS011;48433;53.016;-2.260;2023-08-01T06:22:45;9.65;;;2.45;;
59308;SDS011;48433;53.016;-2.260;2023-08-01T06:25:13;11.82;;;3.33;;
59308;SDS011;48433;53.016;-2.260;2023-08-01T06:27:41;12.80;;;2.42;;
59308;SDS011;48433;53.016;-2.260;2023-08-01T06:30:08;11.80;;;3.15;;
59308;SDS011;48433;53.016;-2.260;2023-08-01T06:32:37;9.57;;;2.53;;
59308;SDS011;48433;53.016;-2.260;2023-08-01T06:35:05;8.82;;;2.20;;
59308;SDS011;48433;53.016;-2.260;2023-08-01T06:37:33;8.13;;;2.15;;
59308;SDS011;48433;53.016;-2.260;2023-08-01T06:40:01;8.60;;;2.13;;
59308;SDS011;48433;53.016;-2.260;2023-08-01T06:42:29;9.48;;;2.28;;
59308;SDS011;48433;53.016;-2.260;2023-08-01T06:44:57;12.48;;;2.20;;
59308;SDS011;48433;53.016;-2.260;2023-08-01T06:47:24;12.75;;;2.85;;
59308;SDS011;48433;53.016;-2.260;2023-08-01T06:49:52;7.03;;;2.00;;
59308;SDS011;48433;53.016;-2.260;2023-08-01T06:52:19;8.75;;;1.98;;
59308;SDS011;48433;53.016;-2.260;2023-08-01T06:54:47;9.70;;;1.90;;
59308;SDS011;48433;53.016;-2.260;2023-08-01T06:57:15;9.93;;;2.47;;
59308;SDS011;48433;53.016;-2.260;2023-08-01T06:59:42;6.57;;;2.35;;
59308;SDS011;48433;53.016;-2.260;2023-08-01T07:02:10;6.03;;;1.98;;
59308;SDS011;48433;53.016;-2.260;2023-08-01T07:04:38;11.98;;;2.50;;
59308;SDS011;48433;53.016;-2.260;2023-08-01T07:07:06;7.57;;;2.15;;
59308;SDS011;48433;53.016;-2.260;2023-08-01T07:09:35;10.30;;;2.10;;
59308;SDS011;48433;53.016;-2.260;2023-08-01T07:12:04;11.05;;;2.25;;
59308;SDS011;48433;53.016;-2.260;2023-08-01T07:14:32;9.85;;;2.35;;
59308;SDS011;48433;53.016;-2.260;2023-08-01T07:17:00;9.25;;;1.85;;
59308;SDS011;48433;53.016;-2.260;2023-08-01T07:19:27;12.68;;;2.10;;
59308;SDS011;48433;53.016;-2.260;2023-08-01T07:21:55;10.40;;;2.25;;
59308;SDS011;48433;53.016;-2.260;2023-08-01T07:24:25;9.18;;;2.28;;
59308;SDS011;48433;53.016;-2.260;2023-08-01T07:26:55;8.27;;;2.35;;
59308;SDS011;48433;53.016;-2.260;2023-08-01T07:29:23;7.90;;;2.03;;
59308;SDS011;48433;53.016;-2.260;2023-08-01T07:31:50;6.70;;;1.88;;
59308;SDS011;48433;53.016;-2.260;2023-08-01T07:34:18;10.63;;;2.03;;
59308;SDS011;48433;53.016;-2.260;2023-08-01T07:36:49;14.93;;;3.17;;
59308;SDS011;48433;53.016;-2.260;2023-08-01T07:39:17;8.10;;;1.98;;
59308;SDS011;48433;53.016;-2.260;2023-08-01T07:41:45;10.63;;;3.22;;
59308;SDS011;48433;53.016;-2.260;2023-08-01T07:44:12;10.70;;;2.30;;
59308;SDS011;48433;53.016;-2.260;2023-08-01T07:46:40;9.32;;;2.35;;
59308;SDS011;48433;53.016;-2.260;2023-08-01T07:49:08;7.97;;;2.00;;
59308;SDS011;48433;53.016;-2.260;2023-08-01T07:51:36;6.68;;;1.90;;
59308;SDS011;48433;53.016;-2.260;2023-08-01T07:54:03;8.30;;;2.13;;
59308;SDS011;48433;53.016;-2.260;2023-08-01T07:56:31;11.68;;;2.55;;
59308;SDS011;48433;53.016;-2.260;2023-08-01T07:58:59;10.05;;;2.45;;
59308;SDS011;48433;53.016;-2.260;2023-08-01T08:01:26;7.22;;;1.85;;
59308;SDS011;48433;53.016;-2.260;2023-08-01T08:03:54;9.00;;;2.05;;
59308;SDS011;48433;53.016;-2.260;2023-08-01T08:06:21;9.25;;;2.60;;
59308;SDS011;48433;53.016;-2.260;2023-08-01T08:08:50;7.65;;;1.95;;
59308;SDS011;48433;53.016;-2.260;2023-08-01T08:11:18;6.88;;;1.95;;
59308;SDS011;48433;53.016;-2.260;2023-08-01T08:13:45;7.57;;;1.73;;
59308;SDS011;48433;53.016;-2.260;2023-08-01T08:16:13;7.40;;;1.80;;
59308;SDS011;48433;53.016;-2.260;2023-08-01T08:18:41;7.55;;;2.55;;
59308;SDS011;48433;53.016;-2.260;2023-08-01T08:21:09;8.63;;;1.80;;
59308;SDS011;48433;53.016;-2.260;2023-08-01T08:23:37;13.93;;;2.08;;
59308;SDS011;48433;53.016;-2.260;2023-08-01T08:26:05;10.10;;;2.10;;
59308;SDS011;48433;53.016;-2.260;2023-08-01T08:28:34;6.70;;;1.90;;
59308;SDS011;48433;53.016;-2.260;2023-08-01T08:31:02;9.68;;;1.77;;
59308;SDS011;48433;53.016;-2.260;2023-08-01T08:33:30;9.27;;;2.65;;
59308;SDS011;48433;53.016;-2.260;2023-08-01T08:35:58;8.38;;;1.88;;
59308;SDS011;48433;53.016;-2.260;2023-08-01T08:38:26;8.95;;;2.00;;
59308;SDS011;48433;53.016;-2.260;2023-08-01T08:41:01;6.20;;;1.85;;
59308;SDS011;48433;53.016;-2.260;2023-08-01T08:43:35;6.97;;;1.50;;
59308;SDS011;48433;53.016;-2.260;2023-08-01T08:46:03;7.43;;;2.10;;
59308;SDS011;48433;53.016;-2.260;2023-08-01T08:48:32;8.27;;;1.55;;
59308;SDS011;48433;53.016;-2.260;2023-08-01T08:51:01;5.78;;;1.52;;
59308;SDS011;48433;53.016;-2.260;2023-08-01T08:53:30;7.43;;;1.80;;
59308;SDS011;48433;53.016;-2.260;2023-08-01T08:56:00;7.05;;;1.95;;
59308;SDS011;48433;53.016;-2.260;2023-08-01T08:58:29;4.10;;;1.20;;
59308;SDS011;48433;53.016;-2.260;2023-08-01T09:01:01;5.93;;;1.55;;
59308;SDS011;48433;53.016;-2.260;2023-08-01T09:03:29;3.78;;;1.30;;
59308;SDS011;48433;53.016;-2.260;2023-08-01T09:06:02;7.45;;;1.80;;
59308;SDS011;48433;53.016;-2.260;2023-08-01T09:08:34;6.60;;;2.00;;
59308;SDS011;48433;53.016;-2.260;2023-08-01T09:11:03;6.38;;;1.83;;
59308;SDS011;48433;53.016;-2.260;2023-08-01T09:13:31;6.50;;;1.75;;
59308;SDS011;48433;53.016;-2.260;2023-08-01T09:15:59;6.43;;;1.33;;
59308;SDS011;48433;53.016;-2.260;2023-08-01T09:18:32;6.72;;;1.23;;
59308;SDS011;48433;53.016;-2.260;2023-08-01T09:20:59;4.60;;;1.63;;
59308;SDS011;48433;53.016;-2.260;2023-08-01T09:23:31;9.30;;;2.03;;
59308;SDS011;48433;53.016;-2.260;2023-08-01T09:25:59;8.27;;;1.88;;
59308;SDS011;48433;53.016;-2.260;2023-08-01T09:28:26;8.10;;;1.55;;
59308;SDS011;48433;53.016;-2.260;2023-08-01T09:30:55;5.43;;;1.50;;
59308;SDS011;48433;53.016;-2.260;2023-08-01T09:33:24;5.78;;;1.50;;
59308;SDS011;48433;53.016;-2.260;2023-08-01T09:35:52;4.72;;;1.45;;
59308;SDS011;48433;53.016;-2.260;2023-08-01T09:38:20;5.80;;;1.50;;
59308;SDS011;48433;53.016;-2.260;2023-08-01T09:40:48;6.60;;;1.55;;
59308;SDS011;48433;53.016;-2.260;2023-08-01T09:43:16;7.32;;;1.70;;
59308;SDS011;48433;53.016;-2.260;2023-08-01T09:45:53;8.05;;;1.75;;
59308;SDS011;48433;53.016;-2.260;2023-08-01T09:48:30;5.65;;;2.25;;
59308;SDS011;48433;53.016;-2.260;2023-08-01T09:53:36;5.15;;;1.58;;
59308;SDS011;48433;53.016;-2.260;2023-08-01T09:56:15;8.73;;;1.27;;
59308;SDS011;48433;53.016;-2.260;2023-08-01T09:58:48;4.50;;;1.33;;
59308;SDS011;48433;53.016;-2.260;2023-08-01T10:01:17;5.88;;;1.30;;
59308;SDS011;48433;53.016;-2.260;2023-08-01T10:03:48;5.65;;;1.40;;
59308;SDS011;48433;53.016;-2.260;2023-08-01T10:06:17;7.20;;;1.52;;
59308;SDS011;48433;53.016;-2.260;2023-08-01T10:08:50;9.38;;;1.65;;
59308;SDS011;48433;53.016;-2.260;2023-08-01T10:11:22;8.02;;;2.17;;
59308;SDS011;48433;53.016;-2.260;2023-08-01T10:13:50;3.92;;;1.38;;
59308;SDS011;48433;53.016;-2.260;2023-08-01T10:16:17;3.28;;;0.98;;
59308;SDS011;48433;53.016;-2.260;2023-08-01T10:18:45;3.53;;;1.30;;
59308;SDS011;48433;53.016;-2.260;2023-08-01T10:21:14;7.30;;;1.40;;
59308;SDS011;48433;53.016;-2.260;2023-08-01T10:23:44;7.50;;;2.03;;
59308;SDS011;48433;53.016;-2.260;2023-08-01T10:26:13;5.38;;;1.35;;
59308;SDS011;48433;53.016;-2.260;2023-08-01T10:28:49;4.05;;;1.40;;
59308;SDS011;48433;53.016;-2.260;2023-08-01T10:31:18;4.88;;;1.17;;
59308;SDS011;48433;53.016;-2.260;2023-08-01T10:33:48;3.70;;;1.10;;
59308;SDS011;48433;53.016;-2.260;2023-08-01T10:36:16;4.65;;;1.23;;
59308;SDS011;48433;53.016;-2.260;2023-08-01T10:38:46;6.43;;;1.70;;
59308;SDS011;48433;53.016;-2.260;2023-08-01T10:47:00;5.35;;;1.40;;
59308;SDS011;48433;53.016;-2.260;2023-08-01T10:49:47;3.20;;;1.02;;
59308;SDS011;48433;53.016;-2.260;2023-08-01T10:54:56;4.78;;;1.50;;
59308;SDS011;48433;53.016;-2.260;2023-08-01T10:57:33;5.82;;;1.55;;
59308;SDS011;48433;53.016;-2.260;2023-08-01T11:00:03;2.65;;;1.00;;
59308;SDS011;48433;53.016;-2.260;2023-08-01T11:02:36;4.25;;;1.20;;
59308;SDS011;48433;53.016;-2.260;2023-08-01T11:05:05;5.00;;;1.40;;
59308;SDS011;48433;53.016;-2.260;2023-08-01T11:07:34;4.88;;;1.20;;
59308;SDS011;48433;53.016;-2.260;2023-08-01T11:10:12;5.10;;;1.17;;
59308;SDS011;48433;53.016;-2.260;2023-08-01T11:12:41;5.88;;;1.65;;
59308;SDS011;48433;53.016;-2.260;2023-08-01T11:15:11;6.00;;;1.50;;
59308;SDS011;48433;53.016;-2.260;2023-08-01T11:17:40;2.13;;;0.90;;
59308;SDS011;48433;53.016;-2.260;2023-08-01T11:20:19;5.85;;;1.30;;
59308;SDS011;48433;53.016;-2.260;2023-08-01T11:22:52;4.40;;;1.08;;
59308;SDS011;48433;53.016;-2.260;2023-08-01T11:25:33;5.82;;;1.65;;
59308;SDS011;48433;53.016;-2.260;2023-08-01T11:28:06;5.13;;;1.20;;
59308;SDS011;48433;53.016;-2.260;2023-08-01T11:30:36;5.57;;;1.27;;
59308;SDS011;48433;53.016;-2.260;2023-08-01T11:33:22;6.13;;;1.30;;
59308;SDS011;48433;53.016;-2.260;2023-08-01T11:35:51;5.63;;;1.20;;
59308;SDS011;48433;53.016;-2.260;2023-08-01T11:38:21;4.53;;;1.20;;
59308;SDS011;48433;53.016;-2.260;2023-08-01T11:40:50;5.03;;;1.20;;
59308;SDS011;48433;53.016;-2.260;2023-08-01T11:43:18;4.25;;;1.33;;
59308;SDS011;48433;53.016;-2.260;2023-08-01T11:45:49;3.42;;;1.10;;
59308;SDS011;48433;53.016;-2.260;2023-08-01T11:48:17;3.13;;;1.02;;
59308;SDS011;48433;53.016;-2.260;2023-08-01T11:50:46;4.57;;;1.30;;
59308;SDS011;48433;53.016;-2.260;2023-08-01T11:53:20;3.65;;;0.95;;
59308;SDS011;48433;53.016;-2.260;2023-08-01T11:55:48;5.40;;;1.13;;
59308;SDS011;48433;53.016;-2.260;2023-08-01T11:58:35;5.50;;;1.27;;
59308;SDS011;48433;53.016;-2.260;2023-08-01T12:01:11;4.65;;;1.75;;
59308;SDS011;48433;53.016;-2.260;2023-08-01T12:03:53;5.57;;;1.20;;
59308;SDS011;48433;53.016;-2.260;2023-08-01T12:06:22;6.72;;;1.52;;
59308;SDS011;48433;53.016;-2.260;2023-08-01T12:08:50;5.10;;;1.30;;
59308;SDS011;48433;53.016;-2.260;2023-08-01T12:11:20;4.90;;;1.30;;
59308;SDS011;48433;53.016;-2.260;2023-08-01T12:16:31;5.35;;;1.30;;
59308;SDS011;48433;53.016;-2.260;2023-08-01T12:18:59;4.28;;;1.20;;
59308;SDS011;48433;53.016;-2.260;2023-08-01T12:21:28;4.93;;;1.27;;
59308;SDS011;48433;53.016;-2.260;2023-08-01T12:23:56;5.10;;;1.23;;
59308;SDS011;48433;53.016;-2.260;2023-08-01T12:26:24;5.05;;;1.38;;
59308;SDS011;48433;53.016;-2.260;2023-08-01T12:28:52;5.13;;;1.27;;
59308;SDS011;48433;53.016;-2.260;2023-08-01T12:31:20;3.42;;;1.20;;
59308;SDS011;48433;53.016;-2.260;2023-08-01T12:33:49;5.15;;;1.33;;
59308;SDS011;48433;53.016;-2.260;2023-08-01T12:36:16;5.90;;;1.10;;
59308;SDS011;48433;53.016;-2.260;2023-08-01T12:38:44;9.32;;;1.35;;
59308;SDS011;48433;53.016;-2.260;2023-08-01T12:41:12;3.92;;;1.30;;
59308;SDS011;48433;53.016;-2.260;2023-08-01T12:43:39;10.20;;;2.08;;
59308;SDS011;48433;53.016;-2.260;2023-08-01T12:46:07;4.88;;;1.40;;
59308;SDS011;48433;53.016;-2.260;2023-08-01T12:48:34;7.88;;;1.48;;
59308;SDS011;48433;53.016;-2.260;2023-08-01T12:51:02;7.22;;;1.35;;
59308;SDS011;48433;53.016;-2.260;2023-08-01T12:53:30;9.05;;;1.63;;
59308;SDS011;48433;53.016;-2.260;2023-08-01T12:56:03;7.25;;;1.83;;
59308;SDS011;48433;53.016;-2.260;2023-08-01T12:58:31;5.93;;;1.48;;
59308;SDS011;48433;53.016;-2.260;2023-08-01T13:00:59;8.73;;;1.63;;
59308;SDS011;48433;53.016;-2.260;2023-08-01T13:03:29;4.35;;;1.08;;
59308;SDS011;48433;53.016;-2.260;2023-08-01T13:05:57;6.80;;;1.60;;
59308;SDS011;48433;53.016;-2.260;2023-08-01T13:08:26;5.63;;;1.30;;
59308;SDS011;48433;53.016;-2.260;2023-08-01T13:10:53;3.92;;;1.30;;
59308;SDS011;48433;53.016;-2.260;2023-08-01T13:13:21;13.35;;;1.70;;
59308;SDS011;48433;53.016;-2.260;2023-08-01T13:15:48;9.43;;;2.15;;
59308;SDS011;48433;53.016;-2.260;2023-08-01T13:18:16;5.55;;;1.48;;
59308;SDS011;48433;53.016;-2.260;2023-08-01T13:20:44;4.55;;;1.50;;
59308;SDS011;48433;53.016;-2.260;2023-08-01T13:23:12;3.72;;;1.30;;
59308;SDS011;48433;53.016;-2.260;2023-08-01T13:25:40;7.68;;;1.40;;
59308;SDS011;48433;53.016;-2.260;2023-08-01T13:28:07;5.13;;;1.30;;
59308;SDS011;48433;53.016;-2.260;2023-08-01T13:30:35;9.23;;;1.77;;
59308;SDS011;48433;53.016;-2.260;2023-08-01T13:33:03;7.90;;;1.73;;
59308;SDS011;48433;53.016;-2.260;2023-08-01T13:35:30;4.72;;;1.38;;
59308;SDS011;48433;53.016;-2.260;2023-08-01T13:37:58;7.03;;;1.83;;
59308;SDS011;48433;53.016;-2.260;2023-08-01T13:40:25;5.95;;;1.58;;
59308;SDS011;48433;53.016;-2.260;2023-08-01T13:42:53;6.28;;;1.60;;
59308;SDS011;48433;53.016;-2.260;2023-08-01T13:45:21;7.55;;;1.83;;
59308;SDS011;48433;53.016;-2.260;2023-08-01T13:47:48;6.32;;;1.95;;
59308;SDS011;48433;53.016;-2.260;2023-08-01T13:50:16;6.22;;;1.30;;
59308;SDS011;48433;53.016;-2.260;2023-08-01T13:52:43;6.13;;;1.25;;
59308;SDS011;48433;53.016;-2.260;2023-08-01T13:55:11;9.32;;;1.63;;
59308;SDS011;48433;53.016;-2.260;2023-08-01T13:57:39;5.45;;;1.80;;
59308;SDS011;48433;53.016;-2.260;2023-08-01T14:00:06;5.78;;;1.70;;
59308;SDS011;48433;53.016;-2.260;2023-08-01T14:02:42;5.35;;;1.30;;
59308;SDS011;48433;53.016;-2.260;2023-08-01T14:05:10;4.85;;;1.85;;
59308;SDS011;48433;53.016;-2.260;2023-08-01T14:07:38;3.78;;;1.30;;
59308;SDS011;48433;53.016;-2.260;2023-08-01T14:10:10;5.30;;;1.42;;
59308;SDS011;48433;53.016;-2.260;2023-08-01T14:12:38;5.43;;;1.50;;
59308;SDS011;48433;53.016;-2.260;2023-08-01T14:15:06;7.55;;;1.50;;
59308;SDS011;48433;53.016;-2.260;2023-08-01T14:17:33;4.85;;;1.60;;
59308;SDS011;48433;53.016;-2.260;2023-08-01T14:20:02;8.70;;;1.45;;
59308;SDS011;48433;53.016;-2.260;2023-08-01T14:22:33;7.38;;;1.38;;
59308;SDS011;48433;53.016;-2.260;2023-08-01T14:25:00;6.70;;;1.50;;
59308;SDS011;48433;53.016;-2.260;2023-08-01T14:27:28;4.50;;;1.50;;
59308;SDS011;48433;53.016;-2.260;2023-08-01T14:29:56;4.05;;;1.25;;
59308;SDS011;48433;53.016;-2.260;2023-08-01T14:32:24;3.70;;;1.17;;
59308;SDS011;48433;53.016;-2.260;2023-08-01T14:34:52;4.85;;;1.15;;
59308;SDS011;48433;53.016;-2.260;2023-08-01T14:37:20;3.35;;;1.30;;
59308;SDS011;48433;53.016;-2.260;2023-08-01T14:39:51;7.03;;;1.40;;
59308;SDS011;48433;53.016;-2.260;2023-08-01T14:42:19;6.22;;;1.80;;
59308;SDS011;48433;53.016;-2.260;2023-08-01T14:44:52;6.40;;;1.50;;
59308;SDS011;48433;53.016;-2.260;2023-08-01T14:47:21;6.97;;;1.80;;
59308;SDS011;48433;53.016;-2.260;2023-08-01T14:49:49;6.97;;;1.50;;
59308;SDS011;48433;53.016;-2.260;2023-08-01T14:52:16;4.00;;;1.23;;